sensor_id;sensor_type;location;lat;lon;timestamp;temperature;humidity
22852;DHT22;11592;45.460;9.240;2022-11-21T00:00:53;7.30;99.90
22852;DHT22;11592;45.460;9.240;2022-11-21T00:03:20;7.30;99.90
22852;DHT22;11592;45.460;9.240;2022-11-21T00:05:48;7.20;99.90
22852;DHT22;11592;45.460;9.240;2022-11-21T00:08:19;7.10;99.90
22852;DHT22;11592;45.460;9.240;2022-11-21T00:10:47;7.10;99.90
22852;DHT22;11592;45.460;9.240;2022-11-21T00:13:16;7.10;99.90
22852;DHT22;11592;45.460;9.240;2022-11-21T00:15:44;7.10;99.90
22852;DHT22;11592;45.460;9.240;2022-11-21T00:18:11;7.10;99.90
22852;DHT22;11592;45.460;9.240;2022-11-21T00:20:39;7.10;99.90
22852;DHT22;11592;45.460;9.240;2022-11-21T00:23:06;7.10;99.90
22852;DHT22;11592;45.460;9.240;2022-11-21T00:25:33;7.20;99.90
22852;DHT22;11592;45.460;9.240;2022-11-21T00:28:00;7.20;99.90
22852;DHT22;11592;45.460;9.240;2022-11-21T00:30:27;7.40;99.90
22852;DHT22;11592;45.460;9.240;2022-11-21T00:32:54;7.60;99.90
22852;DHT22;11592;45.460;9.240;2022-11-21T00:35:20;7.80;99.90
22852;DHT22;11592;45.460;9.240;2022-11-21T00:37:47;7.60;99.90
22852;DHT22;11592;45.460;9.240;2022-11-21T00:40:16;7.40;99.90
22852;DHT22;11592;45.460;9.240;2022-11-21T00:42:43;7.30;99.90
22852;DHT22;11592;45.460;9.240;2022-11-21T00:45:10;7.20;99.90
22852;DHT22;11592;45.460;9.240;2022-11-21T00:47:37;7.10;99.90
22852;DHT22;11592;45.460;9.240;2022-11-21T00:50:04;7.00;99.90
22852;DHT22;11592;45.460;9.240;2022-11-21T00:52:31;6.90;99.90
22852;DHT22;11592;45.460;9.240;2022-11-21T00:54:58;6.80;99.90
22852;DHT22;11592;45.460;9.240;2022-11-21T00:57:25;6.80;99.90
22852;DHT22;11592;45.460;9.240;2022-11-21T00:59:52;6.80;99.90
22852;DHT22;11592;45.460;9.240;2022-11-21T01:02:19;6.80;99.90
22852;DHT22;11592;45.460;9.240;2022-11-21T01:04:45;6.80;99.90
22852;DHT22;11592;45.460;9.240;2022-11-21T01:07:13;6.70;99.90
22852;DHT22;11592;45.460;9.240;2022-11-21T01:09:40;6.70;99.90
22852;DHT22;11592;45.460;9.240;2022-11-21T01:12:07;6.70;99.90
22852;DHT22;11592;45.460;9.240;2022-11-21T01:14:34;6.60;99.90
22852;DHT22;11592;45.460;9.240;2022-11-21T01:17:01;6.60;99.90
22852;DHT22;11592;45.460;9.240;2022-11-21T01:19:28;6.60;99.90
22852;DHT22;11592;45.460;9.240;2022-11-21T01:21:54;6.60;99.90
22852;DHT22;11592;45.460;9.240;2022-11-21T01:24:21;6.60;99.90
22852;DHT22;11592;45.460;9.240;2022-11-21T01:26:48;6.60;99.90
22852;DHT22;11592;45.460;9.240;2022-11-21T01:29:16;6.50;99.90
22852;DHT22;11592;45.460;9.240;2022-11-21T01:31:43;6.50;99.90
22852;DHT22;11592;45.460;9.240;2022-11-21T01:34:10;6.40;99.90
22852;DHT22;11592;45.460;9.240;2022-11-21T01:36:37;6.40;99.90
22852;DHT22;11592;45.460;9.240;2022-11-21T01:39:04;6.40;99.90
22852;DHT22;11592;45.460;9.240;2022-11-21T01:41:37;6.40;99.90
22852;DHT22;11592;45.460;9.240;2022-11-21T01:44:17;6.40;99.90
22852;DHT22;11592;45.460;9.240;2022-11-21T01:46:45;6.30;99.90
22852;DHT22;11592;45.460;9.240;2022-11-21T01:49:21;6.30;99.90
22852;DHT22;11592;45.460;9.240;2022-11-21T01:57:41;6.20;99.90
22852;DHT22;11592;45.460;9.240;2022-11-21T02:00:16;6.20;99.90
22852;DHT22;11592;45.460;9.240;2022-11-21T02:02:48;6.20;99.90
22852;DHT22;11592;45.460;9.240;2022-11-21T02:05:23;6.20;99.90
22852;DHT22;11592;45.460;9.240;2022-11-21T02:07:55;6.20;99.90
22852;DHT22;11592;45.460;9.240;2022-11-21T02:10:23;6.20;99.90
22852;DHT22;11592;45.460;9.240;2022-11-21T02:12:55;6.20;99.90
22852;DHT22;11592;45.460;9.240;2022-11-21T02:15:26;6.10;99.90
22852;DHT22;11592;45.460;9.240;2022-11-21T02:17:53;6.10;99.90
22852;DHT22;11592;45.460;9.240;2022-11-21T02:20:23;6.20;99.90
22852;DHT22;11592;45.460;9.240;2022-11-21T02:25:28;6.10;99.90
22852;DHT22;11592;45.460;9.240;2022-11-21T02:28:01;6.20;99.90
22852;DHT22;11592;45.460;9.240;2022-11-21T02:30:30;6.20;99.90
22852;DHT22;11592;45.460;9.240;2022-11-21T02:32:57;6.10;99.90
22852;DHT22;11592;45.460;9.240;2022-11-21T02:35:24;6.10;99.90
22852;DHT22;11592;45.460;9.240;2022-11-21T02:37:59;6.10;99.90
22852;DHT22;11592;45.460;9.240;2022-11-21T02:40:30;6.10;99.90
22852;DHT22;11592;45.460;9.240;2022-11-21T02:45:43;6.00;99.90
22852;DHT22;11592;45.460;9.240;2022-11-21T02:48:11;6.00;99.90
22852;DHT22;11592;45.460;9.240;2022-11-21T02:50:40;6.00;99.90
22852;DHT22;11592;45.460;9.240;2022-11-21T02:53:09;6.00;99.90
22852;DHT22;11592;45.460;9.240;2022-11-21T02:55:36;6.00;99.90
22852;DHT22;11592;45.460;9.240;2022-11-21T02:58:04;5.90;99.90
22852;DHT22;11592;45.460;9.240;2022-11-21T03:00:32;5.90;99.90
22852;DHT22;11592;45.460;9.240;2022-11-21T03:02:59;5.90;99.90
22852;DHT22;11592;45.460;9.240;2022-11-21T03:05:26;5.80;99.90
22852;DHT22;11592;45.460;9.240;2022-11-21T03:07:53;5.80;99.90
22852;DHT22;11592;45.460;9.240;2022-11-21T03:10:20;5.80;99.90
22852;DHT22;11592;45.460;9.240;2022-11-21T03:12:46;5.80;99.90
22852;DHT22;11592;45.460;9.240;2022-11-21T03:15:14;5.80;99.90
22852;DHT22;11592;45.460;9.240;2022-11-21T03:17:41;5.80;99.90
22852;DHT22;11592;45.460;9.240;2022-11-21T03:20:09;5.80;99.90
22852;DHT22;11592;45.460;9.240;2022-11-21T03:22:36;5.80;99.90
22852;DHT22;11592;45.460;9.240;2022-11-21T03:25:03;5.90;99.90
22852;DHT22;11592;45.460;9.240;2022-11-21T03:27:30;5.80;99.90
22852;DHT22;11592;45.460;9.240;2022-11-21T03:29:56;5.80;99.90
22852;DHT22;11592;45.460;9.240;2022-11-21T03:32:23;5.80;99.90
22852;DHT22;11592;45.460;9.240;2022-11-21T03:34:50;5.80;99.90
22852;DHT22;11592;45.460;9.240;2022-11-21T03:37:16;5.80;99.90
22852;DHT22;11592;45.460;9.240;2022-11-21T03:39:43;5.80;99.90
22852;DHT22;11592;45.460;9.240;2022-11-21T03:42:10;5.80;99.90
22852;DHT22;11592;45.460;9.240;2022-11-21T03:44:36;5.80;99.90
22852;DHT22;11592;45.460;9.240;2022-11-21T03:47:04;5.80;99.90
22852;DHT22;11592;45.460;9.240;2022-11-21T03:49:31;5.70;99.90
22852;DHT22;11592;45.460;9.240;2022-11-21T03:51:57;5.70;99.90
22852;DHT22;11592;45.460;9.240;2022-11-21T03:54:24;5.70;99.90
22852;DHT22;11592;45.460;9.240;2022-11-21T03:56:51;5.70;99.90
22852;DHT22;11592;45.460;9.240;2022-11-21T03:59:18;5.60;99.90
22852;DHT22;11592;45.460;9.240;2022-11-21T04:01:45;5.60;99.90
22852;DHT22;11592;45.460;9.240;2022-11-21T04:04:12;5.60;99.90
22852;DHT22;11592;45.460;9.240;2022-11-21T04:06:38;5.60;99.90
22852;DHT22;11592;45.460;9.240;2022-11-21T04:09:05;5.50;99.90
22852;DHT22;11592;45.460;9.240;2022-11-21T04:11:32;5.60;99.90
22852;DHT22;11592;45.460;9.240;2022-11-21T04:13:59;5.60;99.90
22852;DHT22;11592;45.460;9.240;2022-11-21T04:16:25;5.60;99.90
22852;DHT22;11592;45.460;9.240;2022-11-21T04:18:52;5.50;99.90
22852;DHT22;11592;45.460;9.240;2022-11-21T04:21:19;5.50;99.90
22852;DHT22;11592;45.460;9.240;2022-11-21T04:23:46;5.50;99.90
22852;DHT22;11592;45.460;9.240;2022-11-21T04:26:13;5.50;99.90
22852;DHT22;11592;45.460;9.240;2022-11-21T04:28:39;5.40;99.90
22852;DHT22;11592;45.460;9.240;2022-11-21T04:31:07;5.40;99.90
22852;DHT22;11592;45.460;9.240;2022-11-21T04:33:38;5.40;99.90
22852;DHT22;11592;45.460;9.240;2022-11-21T04:36:08;5.40;99.90
22852;DHT22;11592;45.460;9.240;2022-11-21T04:38:35;5.40;99.90
22852;DHT22;11592;45.460;9.240;2022-11-21T04:41:02;5.40;99.90
22852;DHT22;11592;45.460;9.240;2022-11-21T04:43:30;5.40;99.90
22852;DHT22;11592;45.460;9.240;2022-11-21T04:45:56;5.40;99.90
22852;DHT22;11592;45.460;9.240;2022-11-21T04:48:23;5.30;99.90
22852;DHT22;11592;45.460;9.240;2022-11-21T04:50:50;5.30;99.90
22852;DHT22;11592;45.460;9.240;2022-11-21T04:53:17;5.40;99.90
22852;DHT22;11592;45.460;9.240;2022-11-21T04:55:43;5.30;99.90
22852;DHT22;11592;45.460;9.240;2022-11-21T04:58:10;5.30;99.90
22852;DHT22;11592;45.460;9.240;2022-11-21T05:00:37;5.20;99.90
22852;DHT22;11592;45.460;9.240;2022-11-21T05:03:04;5.20;99.90
22852;DHT22;11592;45.460;9.240;2022-11-21T05:05:32;5.20;99.90
22852;DHT22;11592;45.460;9.240;2022-11-21T05:07:59;5.20;99.90
22852;DHT22;11592;45.460;9.240;2022-11-21T05:10:26;5.20;99.90
22852;DHT22;11592;45.460;9.240;2022-11-21T05:12:59;5.20;99.90
22852;DHT22;11592;45.460;9.240;2022-11-21T05:15:44;5.20;99.90
22852;DHT22;11592;45.460;9.240;2022-11-21T05:18:11;5.30;99.90
22852;DHT22;11592;45.460;9.240;2022-11-21T05:20:38;5.20;99.90
22852;DHT22;11592;45.460;9.240;2022-11-21T05:23:05;5.20;99.90
22852;DHT22;11592;45.460;9.240;2022-11-21T05:25:32;5.20;99.90
22852;DHT22;11592;45.460;9.240;2022-11-21T05:27:59;5.20;99.90
22852;DHT22;11592;45.460;9.240;2022-11-21T05:30:25;5.20;99.90
22852;DHT22;11592;45.460;9.240;2022-11-21T05:32:52;5.20;99.90
22852;DHT22;11592;45.460;9.240;2022-11-21T05:35:19;5.10;99.90
22852;DHT22;11592;45.460;9.240;2022-11-21T05:37:46;5.00;99.90
22852;DHT22;11592;45.460;9.240;2022-11-21T05:40:12;5.00;99.90
22852;DHT22;11592;45.460;9.240;2022-11-21T05:42:42;5.00;99.90
22852;DHT22;11592;45.460;9.240;2022-11-21T05:45:27;5.00;99.90
22852;DHT22;11592;45.460;9.240;2022-11-21T05:47:54;5.00;99.90
22852;DHT22;11592;45.460;9.240;2022-11-21T05:50:21;5.00;99.90
22852;DHT22;11592;45.460;9.240;2022-11-21T05:52:48;5.10;99.90
22852;DHT22;11592;45.460;9.240;2022-11-21T05:55:14;5.10;99.90
22852;DHT22;11592;45.460;9.240;2022-11-21T05:57:41;5.10;99.90
22852;DHT22;11592;45.460;9.240;2022-11-21T06:00:08;5.10;99.90
22852;DHT22;11592;45.460;9.240;2022-11-21T06:02:35;5.10;99.90
22852;DHT22;11592;45.460;9.240;2022-11-21T06:05:20;5.10;99.90
22852;DHT22;11592;45.460;9.240;2022-11-21T06:07:47;5.10;99.90
22852;DHT22;11592;45.460;9.240;2022-11-21T06:10:15;5.10;99.90
22852;DHT22;11592;45.460;9.240;2022-11-21T06:12:41;5.00;99.90
22852;DHT22;11592;45.460;9.240;2022-11-21T06:15:08;5.00;99.90
22852;DHT22;11592;45.460;9.240;2022-11-21T06:17:35;5.00;99.90
22852;DHT22;11592;45.460;9.240;2022-11-21T06:20:02;5.00;99.90
22852;DHT22;11592;45.460;9.240;2022-11-21T06:22:29;5.10;99.90
22852;DHT22;11592;45.460;9.240;2022-11-21T06:24:56;5.00;99.90
22852;DHT22;11592;45.460;9.240;2022-11-21T06:27:22;5.00;99.90
22852;DHT22;11592;45.460;9.240;2022-11-21T06:29:49;5.10;99.90
22852;DHT22;11592;45.460;9.240;2022-11-21T06:32:16;5.00;99.90
22852;DHT22;11592;45.460;9.240;2022-11-21T06:34:43;5.00;99.90
22852;DHT22;11592;45.460;9.240;2022-11-21T06:37:09;5.00;99.90
22852;DHT22;11592;45.460;9.240;2022-11-21T06:39:36;5.00;99.90
22852;DHT22;11592;45.460;9.240;2022-11-21T06:42:03;5.10;99.90
22852;DHT22;11592;45.460;9.240;2022-11-21T06:44:30;5.10;99.90
22852;DHT22;11592;45.460;9.240;2022-11-21T06:46:57;5.20;99.90
22852;DHT22;11592;45.460;9.240;2022-11-21T06:49:23;5.40;99.90
22852;DHT22;11592;45.460;9.240;2022-11-21T06:51:50;5.50;99.90
22852;DHT22;11592;45.460;9.240;2022-11-21T06:54:17;5.40;99.90
22852;DHT22;11592;45.460;9.240;2022-11-21T06:56:44;5.30;99.90
22852;DHT22;11592;45.460;9.240;2022-11-21T06:59:10;5.20;99.90
22852;DHT22;11592;45.460;9.240;2022-11-21T07:01:37;5.10;99.90
22852;DHT22;11592;45.460;9.240;2022-11-21T07:04:04;5.10;99.90
22852;DHT22;11592;45.460;9.240;2022-11-21T07:06:33;5.20;99.90
22852;DHT22;11592;45.460;9.240;2022-11-21T07:09:00;5.30;99.90
22852;DHT22;11592;45.460;9.240;2022-11-21T07:11:47;5.40;99.90
22852;DHT22;11592;45.460;9.240;2022-11-21T07:14:13;5.30;99.90
22852;DHT22;11592;45.460;9.240;2022-11-21T07:16:40;5.30;99.90
22852;DHT22;11592;45.460;9.240;2022-11-21T07:19:07;5.40;99.90
22852;DHT22;11592;45.460;9.240;2022-11-21T07:21:33;5.30;99.90
22852;DHT22;11592;45.460;9.240;2022-11-21T07:24:00;5.40;99.90
22852;DHT22;11592;45.460;9.240;2022-11-21T07:26:27;5.60;99.90
22852;DHT22;11592;45.460;9.240;2022-11-21T07:28:54;5.70;99.90
22852;DHT22;11592;45.460;9.240;2022-11-21T07:31:21;5.80;99.90
22852;DHT22;11592;45.460;9.240;2022-11-21T07:33:47;5.90;99.90
22852;DHT22;11592;45.460;9.240;2022-11-21T07:36:14;5.90;99.90
22852;DHT22;11592;45.460;9.240;2022-11-21T07:38:41;5.80;99.90
22852;DHT22;11592;45.460;9.240;2022-11-21T07:41:08;5.90;99.90
22852;DHT22;11592;45.460;9.240;2022-11-21T07:43:35;5.90;99.90
22852;DHT22;11592;45.460;9.240;2022-11-21T07:46:02;6.10;99.90
22852;DHT22;11592;45.460;9.240;2022-11-21T07:48:29;6.20;99.90
22852;DHT22;11592;45.460;9.240;2022-11-21T07:50:56;6.30;99.90
22852;DHT22;11592;45.460;9.240;2022-11-21T07:53:22;6.50;99.90
22852;DHT22;11592;45.460;9.240;2022-11-21T07:55:49;6.70;99.90
22852;DHT22;11592;45.460;9.240;2022-11-21T07:58:16;6.80;99.90
22852;DHT22;11592;45.460;9.240;2022-11-21T08:00:43;6.80;99.90
22852;DHT22;11592;45.460;9.240;2022-11-21T08:03:11;7.00;99.90
22852;DHT22;11592;45.460;9.240;2022-11-21T08:05:40;7.20;99.90
22852;DHT22;11592;45.460;9.240;2022-11-21T08:08:08;7.30;99.90
22852;DHT22;11592;45.460;9.240;2022-11-21T08:10:37;7.10;99.90
22852;DHT22;11592;45.460;9.240;2022-11-21T08:13:04;7.40;99.90
22852;DHT22;11592;45.460;9.240;2022-11-21T08:15:31;7.50;99.90
22852;DHT22;11592;45.460;9.240;2022-11-21T08:18:05;7.70;99.90
22852;DHT22;11592;45.460;9.240;2022-11-21T08:20:32;7.80;99.90
22852;DHT22;11592;45.460;9.240;2022-11-21T08:22:58;8.00;99.90
22852;DHT22;11592;45.460;9.240;2022-11-21T08:25:25;8.10;99.90
22852;DHT22;11592;45.460;9.240;2022-11-21T08:27:55;8.10;99.90
22852;DHT22;11592;45.460;9.240;2022-11-21T08:30:22;8.20;99.90
22852;DHT22;11592;45.460;9.240;2022-11-21T08:32:49;8.30;99.90
22852;DHT22;11592;45.460;9.240;2022-11-21T08:35:16;8.40;99.90
22852;DHT22;11592;45.460;9.240;2022-11-21T08:37:43;8.40;99.90
22852;DHT22;11592;45.460;9.240;2022-11-21T08:40:10;8.50;99.90
22852;DHT22;11592;45.460;9.240;2022-11-21T08:42:37;8.60;99.90
22852;DHT22;11592;45.460;9.240;2022-11-21T08:45:04;8.60;99.90
22852;DHT22;11592;45.460;9.240;2022-11-21T08:47:32;8.70;99.90
22852;DHT22;11592;45.460;9.240;2022-11-21T08:49:59;8.70;99.90
22852;DHT22;11592;45.460;9.240;2022-11-21T08:52:34;8.70;99.90
22852;DHT22;11592;45.460;9.240;2022-11-21T08:55:00;8.70;99.90
22852;DHT22;11592;45.460;9.240;2022-11-21T08:57:27;8.70;99.90
22852;DHT22;11592;45.460;9.240;2022-11-21T08:59:54;8.70;99.90
22852;DHT22;11592;45.460;9.240;2022-11-21T09:02:21;8.50;99.90
22852;DHT22;11592;45.460;9.240;2022-11-21T09:04:48;8.80;99.90
22852;DHT22;11592;45.460;9.240;2022-11-21T09:07:15;8.90;99.90
22852;DHT22;11592;45.460;9.240;2022-11-21T09:09:41;9.00;99.90
22852;DHT22;11592;45.460;9.240;2022-11-21T09:12:08;9.10;99.90
22852;DHT22;11592;45.460;9.240;2022-11-21T09:14:35;9.10;99.90
22852;DHT22;11592;45.460;9.240;2022-11-21T09:17:20;9.20;99.90
22852;DHT22;11592;45.460;9.240;2022-11-21T09:20:06;9.30;99.90
22852;DHT22;11592;45.460;9.240;2022-11-21T09:22:33;9.40;99.90
22852;DHT22;11592;45.460;9.240;2022-11-21T09:25:00;9.60;99.90
22852;DHT22;11592;45.460;9.240;2022-11-21T09:27:27;9.60;99.90
22852;DHT22;11592;45.460;9.240;2022-11-21T09:29:53;9.70;99.90
22852;DHT22;11592;45.460;9.240;2022-11-21T09:32:20;9.70;99.90
22852;DHT22;11592;45.460;9.240;2022-11-21T09:34:47;9.80;99.90
22852;DHT22;11592;45.460;9.240;2022-11-21T09:37:14;9.90;99.90
22852;DHT22;11592;45.460;9.240;2022-11-21T09:39:41;10.00;99.90
22852;DHT22;11592;45.460;9.240;2022-11-21T09:42:40;10.00;99.90
22852;DHT22;11592;45.460;9.240;2022-11-21T09:45:20;10.00;99.90
22852;DHT22;11592;45.460;9.240;2022-11-21T09:47:50;10.10;99.90
22852;DHT22;11592;45.460;9.240;2022-11-21T09:50:28;10.10;99.90
22852;DHT22;11592;45.460;9.240;2022-11-21T09:55:39;10.40;99.90
22852;DHT22;11592;45.460;9.240;2022-11-21T10:01:05;10.60;99.90
22852;DHT22;11592;45.460;9.240;2022-11-21T10:03:47;10.60;99.90
22852;DHT22;11592;45.460;9.240;2022-11-21T10:06:57;10.60;99.90
22852;DHT22;11592;45.460;9.240;2022-11-21T10:12:20;10.70;99.90
22852;DHT22;11592;45.460;9.240;2022-11-21T10:15:42;10.80;99.90
22852;DHT22;11592;45.460;9.240;2022-11-21T10:29:21;11.40;99.90
22852;DHT22;11592;45.460;9.240;2022-11-21T10:31:50;11.40;99.90
22852;DHT22;11592;45.460;9.240;2022-11-21T10:34:24;11.40;99.90
22852;DHT22;11592;45.460;9.240;2022-11-21T10:36:59;11.40;99.90
22852;DHT22;11592;45.460;9.240;2022-11-21T10:39:41;11.30;99.90
22852;DHT22;11592;45.460;9.240;2022-11-21T10:44:38;11.30;99.90
22852;DHT22;11592;45.460;9.240;2022-11-21T10:47:29;11.30;99.90
22852;DHT22;11592;45.460;9.240;2022-11-21T10:52:33;11.10;99.90
22852;DHT22;11592;45.460;9.240;2022-11-21T10:55:07;11.10;99.90
22852;DHT22;11592;45.460;9.240;2022-11-21T10:57:49;11.40;99.90
22852;DHT22;11592;45.460;9.240;2022-11-21T11:03:02;12.00;99.90
22852;DHT22;11592;45.460;9.240;2022-11-21T11:05:37;13.30;99.90
22852;DHT22;11592;45.460;9.240;2022-11-21T11:08:07;14.90;99.90
22852;DHT22;11592;45.460;9.240;2022-11-21T11:11:23;17.10;99.90
22852;DHT22;11592;45.460;9.240;2022-11-21T11:13:31;21.00;98.10
22852;DHT22;11592;45.460;9.240;2022-11-21T11:18:54;26.90;78.90
22852;DHT22;11592;45.460;9.240;2022-11-21T11:21:24;28.20;72.50
22852;DHT22;11592;45.460;9.240;2022-11-21T11:23:52;29.60;65.30
22852;DHT22;11592;45.460;9.240;2022-11-21T11:26:26;29.60;64.00
22852;DHT22;11592;45.460;9.240;2022-11-21T11:29:06;28.50;64.80
22852;DHT22;11592;45.460;9.240;2022-11-21T11:31:49;27.10;67.00
22852;DHT22;11592;45.460;9.240;2022-11-21T11:34:18;25.70;67.60
22852;DHT22;11592;45.460;9.240;2022-11-21T11:45:14;24.60;73.60
22852;DHT22;11592;45.460;9.240;2022-11-21T11:48:04;25.50;71.30
22852;DHT22;11592;45.460;9.240;2022-11-21T11:53:19;25.50;63.60
22852;DHT22;11592;45.460;9.240;2022-11-21T11:55:53;25.90;61.70
22852;DHT22;11592;45.460;9.240;2022-11-21T12:06:29;26.50;55.00
22852;DHT22;11592;45.460;9.240;2022-11-21T12:09:29;26.30;55.30
22852;DHT22;11592;45.460;9.240;2022-11-21T12:12:12;27.00;55.50
22852;DHT22;11592;45.460;9.240;2022-11-21T12:17:45;27.10;53.80
22852;DHT22;11592;45.460;9.240;2022-11-21T12:20:20;26.70;55.70
22852;DHT22;11592;45.460;9.240;2022-11-21T12:22:48;27.70;52.30
22852;DHT22;11592;45.460;9.240;2022-11-21T12:25:18;28.00;49.60
22852;DHT22;11592;45.460;9.240;2022-11-21T12:27:51;27.50;50.60
22852;DHT22;11592;45.460;9.240;2022-11-21T12:31:00;26.40;51.80
22852;DHT22;11592;45.460;9.240;2022-11-21T12:33:30;25.20;50.70
22852;DHT22;11592;45.460;9.240;2022-11-21T12:36:16;24.70;50.90
22852;DHT22;11592;45.460;9.240;2022-11-21T12:39:01;24.00;51.10
22852;DHT22;11592;45.460;9.240;2022-11-21T12:41:46;22.70;58.70
22852;DHT22;11592;45.460;9.240;2022-11-21T12:56:55;21.60;56.80
22852;DHT22;11592;45.460;9.240;2022-11-21T12:59:23;21.10;58.90
22852;DHT22;11592;45.460;9.240;2022-11-21T13:04:43;19.80;63.10
22852;DHT22;11592;45.460;9.240;2022-11-21T13:07:13;19.10;66.30
22852;DHT22;11592;45.460;9.240;2022-11-21T13:09:44;18.50;67.80
22852;DHT22;11592;45.460;9.240;2022-11-21T13:12:17;17.90;67.90
22852;DHT22;11592;45.460;9.240;2022-11-21T13:14:55;17.50;70.60
22852;DHT22;11592;45.460;9.240;2022-11-21T13:19:58;16.90;75.80
22852;DHT22;11592;45.460;9.240;2022-11-21T13:25:02;16.90;74.70
22852;DHT22;11592;45.460;9.240;2022-11-21T13:27:37;16.80;77.10
22852;DHT22;11592;45.460;9.240;2022-11-21T13:32:44;16.80;78.00
22852;DHT22;11592;45.460;9.240;2022-11-21T13:38:06;16.90;74.20
22852;DHT22;11592;45.460;9.240;2022-11-21T13:40:38;16.90;77.80
22852;DHT22;11592;45.460;9.240;2022-11-21T13:43:26;16.90;77.30
22852;DHT22;11592;45.460;9.240;2022-11-21T13:46:01;17.00;76.50
22852;DHT22;11592;45.460;9.240;2022-11-21T14:07:48;16.30;77.50
22852;DHT22;11592;45.460;9.240;2022-11-21T14:12:52;16.00;80.10
22852;DHT22;11592;45.460;9.240;2022-11-21T14:17:57;16.00;82.00
22852;DHT22;11592;45.460;9.240;2022-11-21T14:20:25;15.80;84.20
22852;DHT22;11592;45.460;9.240;2022-11-21T14:23:18;15.70;86.40
22852;DHT22;11592;45.460;9.240;2022-11-21T14:25:55;15.50;88.80
22852;DHT22;11592;45.460;9.240;2022-11-21T14:28:28;15.30;90.60
22852;DHT22;11592;45.460;9.240;2022-11-21T14:38:51;14.70;97.00
22852;DHT22;11592;45.460;9.240;2022-11-21T14:41:49;14.70;98.20
22852;DHT22;11592;45.460;9.240;2022-11-21T14:44:18;14.60;99.70
22852;DHT22;11592;45.460;9.240;2022-11-21T14:46:45;14.50;99.90
22852;DHT22;11592;45.460;9.240;2022-11-21T14:52:07;14.30;99.90
22852;DHT22;11592;45.460;9.240;2022-11-21T14:54:55;14.10;99.90
22852;DHT22;11592;45.460;9.240;2022-11-21T14:57:43;14.10;99.90
22852;DHT22;11592;45.460;9.240;2022-11-21T15:00:15;14.10;99.90
22852;DHT22;11592;45.460;9.240;2022-11-21T15:03:14;14.00;99.90
22852;DHT22;11592;45.460;9.240;2022-11-21T15:05:43;13.90;99.90
22852;DHT22;11592;45.460;9.240;2022-11-21T15:08:34;13.80;99.90
22852;DHT22;11592;45.460;9.240;2022-11-21T15:11:23;13.70;99.90
22852;DHT22;11592;45.460;9.240;2022-11-21T15:13:56;13.40;99.90
22852;DHT22;11592;45.460;9.240;2022-11-21T15:16:42;13.40;99.90
22852;DHT22;11592;45.460;9.240;2022-11-21T15:19:10;13.20;99.90
22852;DHT22;11592;45.460;9.240;2022-11-21T15:21:43;13.10;99.90
22852;DHT22;11592;45.460;9.240;2022-11-21T15:30:36;13.00;99.90
22852;DHT22;11592;45.460;9.240;2022-11-21T15:33:21;13.00;99.90
22852;DHT22;11592;45.460;9.240;2022-11-21T15:35:52;12.90;99.90
22852;DHT22;11592;45.460;9.240;2022-11-21T15:43:44;12.70;99.90
22852;DHT22;11592;45.460;9.240;2022-11-21T15:48:53;12.40;99.90
22852;DHT22;11592;45.460;9.240;2022-11-21T15:51:23;12.40;99.90
22852;DHT22;11592;45.460;9.240;2022-11-21T15:54:15;12.30;99.90
22852;DHT22;11592;45.460;9.240;2022-11-21T15:56:42;12.20;99.90
22852;DHT22;11592;45.460;9.240;2022-11-21T15:59:09;12.10;99.90
22852;DHT22;11592;45.460;9.240;2022-11-21T16:01:36;12.20;99.90
22852;DHT22;11592;45.460;9.240;2022-11-21T16:04:07;12.20;99.90
22852;DHT22;11592;45.460;9.240;2022-11-21T16:06:34;12.30;99.90
22852;DHT22;11592;45.460;9.240;2022-11-21T16:09:01;12.30;99.90
22852;DHT22;11592;45.460;9.240;2022-11-21T16:11:32;12.30;99.90
22852;DHT22;11592;45.460;9.240;2022-11-21T16:14:01;12.10;99.90
22852;DHT22;11592;45.460;9.240;2022-11-21T16:16:35;11.90;99.90
22852;DHT22;11592;45.460;9.240;2022-11-21T16:19:09;11.90;99.90
22852;DHT22;11592;45.460;9.240;2022-11-21T16:21:36;11.80;99.90
22852;DHT22;11592;45.460;9.240;2022-11-21T16:24:04;11.90;99.90
22852;DHT22;11592;45.460;9.240;2022-11-21T16:26:31;11.90;99.90
22852;DHT22;11592;45.460;9.240;2022-11-21T16:29:00;11.70;99.90
22852;DHT22;11592;45.460;9.240;2022-11-21T16:31:29;11.70;99.90
22852;DHT22;11592;45.460;9.240;2022-11-21T16:33:56;11.60;99.90
22852;DHT22;11592;45.460;9.240;2022-11-21T16:36:25;11.50;99.90
22852;DHT22;11592;45.460;9.240;2022-11-21T16:38:53;11.40;99.90
22852;DHT22;11592;45.460;9.240;2022-11-21T16:41:21;11.50;99.90
22852;DHT22;11592;45.460;9.240;2022-11-21T16:43:53;11.50;99.90
22852;DHT22;11592;45.460;9.240;2022-11-21T16:46:22;11.60;99.90
22852;DHT22;11592;45.460;9.240;2022-11-21T16:49:00;11.60;99.90
22852;DHT22;11592;45.460;9.240;2022-11-21T16:51:27;11.50;99.90
22852;DHT22;11592;45.460;9.240;2022-11-21T16:53:55;11.40;99.90
22852;DHT22;11592;45.460;9.240;2022-11-21T16:56:23;11.40;99.90
22852;DHT22;11592;45.460;9.240;2022-11-21T16:58:50;11.40;99.90
22852;DHT22;11592;45.460;9.240;2022-11-21T17:01:26;11.30;99.90
22852;DHT22;11592;45.460;9.240;2022-11-21T17:03:54;11.40;99.90
22852;DHT22;11592;45.460;9.240;2022-11-21T17:06:23;11.40;99.90
22852;DHT22;11592;45.460;9.240;2022-11-21T17:08:50;11.40;99.90
22852;DHT22;11592;45.460;9.240;2022-11-21T17:11:22;11.40;99.90
22852;DHT22;11592;45.460;9.240;2022-11-21T17:13:50;11.30;99.90
22852;DHT22;11592;45.460;9.240;2022-11-21T17:16:18;11.30;99.90
22852;DHT22;11592;45.460;9.240;2022-11-21T17:18:46;11.20;99.90
22852;DHT22;11592;45.460;9.240;2022-11-21T17:21:14;11.40;99.90
22852;DHT22;11592;45.460;9.240;2022-11-21T17:23:43;11.40;99.90
22852;DHT22;11592;45.460;9.240;2022-11-21T17:26:13;11.30;99.90
22852;DHT22;11592;45.460;9.240;2022-11-21T17:28:40;11.30;99.90
22852;DHT22;11592;45.460;9.240;2022-11-21T17:31:13;11.30;99.90
22852;DHT22;11592;45.460;9.240;2022-11-21T17:33:41;11.20;99.90
22852;DHT22;11592;45.460;9.240;2022-11-21T17:36:13;11.20;99.90
22852;DHT22;11592;45.460;9.240;2022-11-21T17:38:40;11.30;99.90
22852;DHT22;11592;45.460;9.240;2022-11-21T17:41:10;11.40;99.90
22852;DHT22;11592;45.460;9.240;2022-11-21T17:43:37;11.20;99.90
22852;DHT22;11592;45.460;9.240;2022-11-21T17:46:12;11.10;99.90
22852;DHT22;11592;45.460;9.240;2022-11-21T17:48:40;11.10;99.90
22852;DHT22;11592;45.460;9.240;2022-11-21T17:51:12;11.20;99.90
22852;DHT22;11592;45.460;9.240;2022-11-21T17:53:41;11.20;99.90
22852;DHT22;11592;45.460;9.240;2022-11-21T17:56:13;11.10;99.90
22852;DHT22;11592;45.460;9.240;2022-11-21T17:58:40;11.10;99.90
22852;DHT22;11592;45.460;9.240;2022-11-21T18:01:08;11.00;99.90
22852;DHT22;11592;45.460;9.240;2022-11-21T18:03:36;11.00;99.90
22852;DHT22;11592;45.460;9.240;2022-11-21T18:06:11;11.00;99.90
22852;DHT22;11592;45.460;9.240;2022-11-21T18:08:41;11.00;99.90
22852;DHT22;11592;45.460;9.240;2022-11-21T18:11:09;11.00;99.90
22852;DHT22;11592;45.460;9.240;2022-11-21T18:13:37;10.90;99.90
22852;DHT22;11592;45.460;9.240;2022-11-21T18:16:16;10.90;99.90
22852;DHT22;11592;45.460;9.240;2022-11-21T18:18:43;10.90;99.90